Time;durP1;ratioP1;P1;durP2;ratioP2;P2;SDS_P1;SDS_P2;PMS_P1;PMS_P2;Temp;Humidity;BMP_temperature;BMP_pressure;BME280_temperature;BME280_humidity;BME280_pressure;Samples;Min_cycle;Max_cycle;Signal;HPM_P1;HPM_P2
2022/03/09 00:00:13;;;;;;;5.87;4.23;;;5.20;99.90;;;;;;4995011;28;20275;-82
2022/03/09 00:02:40;;;;;;;4.20;3.80;;;5.10;99.90;;;;;;4995499;28;20226;-81
2022/03/09 00:05:07;;;;;;;4.97;4.23;;;5.20;99.90;;;;;;4994961;28;20732;-82
2022/03/09 00:07:34;;;;;;;3.73;3.43;;;5.10;99.90;;;;;;4986774;28;20241;-82
2022/03/09 00:10:01;;;;;;;4.37;3.97;;;5.00;99.90;;;;;;4993773;28;20265;-82
2022/03/09 00:12:28;;;;;;;4.00;3.73;;;5.00;99.90;;;;;;4994873;28;20275;-82
2022/03/09 00:14:56;;;;;;;4.57;4.17;;;4.90;99.90;;;;;;4998375;28;20650;-82
2022/03/09 00:17:22;;;;;;;5.10;4.60;;;4.80;99.90;;;;;;4986555;28;20251;-83
2022/03/09 00:19:49;;;;;;;4.77;4.37;;;4.70;99.90;;;;;;5002176;28;20205;-81
2022/03/09 00:22:16;;;;;;;5.17;4.70;;;4.60;99.90;;;;;;4998347;28;20203;-83
2022/03/09 00:24:43;;;;;;;5.67;4.63;;;4.60;99.90;;;;;;4999605;28;20206;-83
2022/03/09 00:27:10;;;;;;;4.67;4.27;;;4.70;99.90;;;;;;4986664;28;20238;-80
2022/03/09 00:29:37;;;;;;;4.47;3.93;;;4.60;99.90;;;;;;5010219;28;20265;-80
2022/03/09 00:32:06;;;;;;;4.70;4.30;;;4.50;99.90;;;;;;4999082;28;20676;-80
2022/03/09 00:34:33;;;;;;;6.43;4.60;;;4.50;99.90;;;;;;4999328;28;20557;-79
2022/03/09 00:37:00;;;;;;;5.00;4.50;;;4.50;99.90;;;;;;4985432;28;20219;-79
2022/03/09 00:39:27;;;;;;;5.27;4.27;;;4.50;99.90;;;;;;4998162;28;20213;-79
2022/03/09 00:41:53;;;;;;;4.73;4.10;;;4.40;99.90;;;;;;4986062;28;20203;-79
2022/03/09 00:44:20;;;;;;;4.63;4.20;;;4.40;99.90;;;;;;4994632;28;20210;-79
2022/03/09 00:46:47;;;;;;;4.37;4.00;;;4.40;99.90;;;;;;4986457;28;20576;-79
2022/03/09 00:49:15;;;;;;;4.80;4.13;;;4.30;99.90;;;;;;5002049;28;20232;-80
2022/03/09 00:51:42;;;;;;;4.40;4.00;;;4.30;99.90;;;;;;5073024;28;20294;-79
2022/03/09 00:54:09;;;;;;;5.97;4.40;;;4.20;99.90;;;;;;5005929;28;20338;-79
2022/03/09 00:56:35;;;;;;;4.33;3.97;;;4.10;99.90;;;;;;4985998;28;20568;-82
2022/03/09 00:59:02;;;;;;;5.10;4.20;;;4.20;99.90;;;;;;4990140;28;20218;-83
2022/03/09 01:01:29;;;;;;;4.30;3.90;;;4.20;99.90;;;;;;4995208;28;20210;-82
2022/03/09 01:03:55;;;;;;;5.67;4.27;;;4.10;99.90;;;;;;4989273;28;20307;-81
2022/03/09 01:06:23;;;;;;;4.30;3.93;;;4.00;99.90;;;;;;4994637;28;20241;-81
2022/03/09 01:08:50;;;;;;;4.60;3.90;;;4.00;99.90;;;;;;4994983;28;20214;-82
2022/03/09 01:11:17;;;;;;;4.83;4.43;;;4.00;99.90;;;;;;4994172;28;20210;-82
2022/03/09 01:13:43;;;;;;;4.17;3.77;;;4.00;99.90;;;;;;4992152;28;20614;-83
2022/03/09 01:16:10;;;;;;;5.43;3.70;;;4.00;99.90;;;;;;4991754;28;20198;-82
2022/03/09 01:18:37;;;;;;;4.13;3.73;;;4.00;99.90;;;;;;4996130;28;20596;-82
2022/03/09 01:21:06;;;;;;;3.87;3.57;;;4.00;99.90;;;;;;4987758;28;20210;-84
2022/03/09 01:23:34;;;;;;;4.10;3.70;;;3.90;99.90;;;;;;4994416;28;20215;-83
2022/03/09 01:26:04;;;;;;;5.13;4.17;;;3.90;99.90;;;;;;4997693;28;20207;-82
2022/03/09 01:28:31;;;;;;;4.33;3.93;;;3.90;99.90;;;;;;4986562;28;20206;-83
2022/03/09 01:30:57;;;;;;;4.40;3.87;;;3.90;99.90;;;;;;5026802;28;20595;-83
2022/03/09 01:33:24;;;;;;;4.40;4.00;;;3.80;99.90;;;;;;5063727;28;20699;-82
2022/03/09 01:35:51;;;;;;;6.00;4.10;;;3.80;99.90;;;;;;4997632;28;20769;-82
2022/03/09 01:38:17;;;;;;;4.73;4.20;;;3.70;99.90;;;;;;4971320;28;20229;-77
2022/03/09 01:40:45;;;;;;;4.23;3.83;;;3.70;99.90;;;;;;5000984;28;20272;-77
2022/03/09 01:43:14;;;;;;;3.90;3.60;;;3.70;99.90;;;;;;4984314;28;20268;-77
2022/03/09 01:45:41;;;;;;;4.20;3.90;;;3.70;99.90;;;;;;4999003;28;20302;-81
2022/03/09 01:48:08;;;;;;;4.13;3.83;;;3.70;99.90;;;;;;5022336;28;20284;-80
2022/03/09 01:50:35;;;;;;;4.43;4.07;;;3.60;99.90;;;;;;4999313;28;20227;-80
2022/03/09 01:53:01;;;;;;;3.80;3.50;;;3.60;99.90;;;;;;4975906;28;20261;-80
2022/03/09 01:55:28;;;;;;;4.80;4.37;;;3.60;99.90;;;;;;4995453;28;20260;-81
2022/03/09 01:57:56;;;;;;;5.20;3.93;;;3.60;99.90;;;;;;5006337;28;20213;-81
2022/03/09 02:00:23;;;;;;;4.20;3.80;;;3.70;99.90;;;;;;4998944;28;20210;-81
2022/03/09 02:02:50;;;;;;;4.10;3.70;;;3.70;99.90;;;;;;4986023;28;20653;-84
2022/03/09 02:05:17;;;;;;;3.57;3.27;;;3.70;99.90;;;;;;4989746;28;20259;-83
2022/03/09 02:10:28;;;;;;;4.67;4.23;;;3.60;99.90;;;;;;4986100;28;20224;-83
2022/03/09 02:12:56;;;;;;;4.77;3.57;;;3.60;99.90;;;;;;5059329;28;20737;-84
2022/03/09 02:15:23;;;;;;;4.00;3.60;;;3.60;99.90;;;;;;5006663;28;20307;-77
2022/03/09 02:17:50;;;;;;;5.60;4.17;;;3.60;99.90;;;;;;4990054;28;20267;-77
2022/03/09 02:20:17;;;;;;;4.00;3.60;;;3.60;99.90;;;;;;4990282;28;20301;-81
2022/03/09 02:22:45;;;;;;;4.77;3.90;;;3.60;99.90;;;;;;4991745;28;20218;-84
2022/03/09 02:25:13;;;;;;;4.50;4.10;;;3.50;99.90;;;;;;4998415;28;20259;-84
2022/03/09 02:27:41;;;;;;;4.87;3.87;;;3.50;99.90;;;;;;5040604;28;20261;-81
2022/03/09 02:30:10;;;;;;;4.70;3.97;;;3.40;99.90;;;;;;5036497;28;20218;-81
2022/03/09 02:32:41;;;;;;;4.57;3.80;;;3.50;99.90;;;;;;4987332;28;20210;-80
2022/03/09 02:35:09;;;;;;;4.20;3.83;;;3.50;99.90;;;;;;4988551;28;20210;-81
2022/03/09 02:37:35;;;;;;;4.50;3.63;;;3.40;99.90;;;;;;4990790;28;20217;-81
2022/03/09 02:40:04;;;;;;;4.27;3.87;;;3.50;99.90;;;;;;4984839;28;20215;-80
2022/03/09 02:42:31;;;;;;;4.30;3.90;;;3.40;99.90;;;;;;4993428;28;20221;-81
2022/03/09 02:44:57;;;;;;;4.80;4.03;;;3.40;99.90;;;;;;4983245;28;20211;-81
2022/03/09 02:47:24;;;;;;;4.13;3.73;;;3.40;99.90;;;;;;4997485;28;20249;-81
2022/03/09 02:49:50;;;;;;;4.40;4.00;;;3.40;99.90;;;;;;4985402;28;20681;-81
2022/03/09 02:52:17;;;;;;;4.90;4.40;;;3.40;99.90;;;;;;5004155;28;20644;-81
2022/03/09 02:54:44;;;;;;;4.77;4.20;;;3.30;99.90;;;;;;4982071;28;20209;-81
2022/03/09 02:57:12;;;;;;;5.23;4.00;;;3.20;99.90;;;;;;4994418;28;20319;-81
2022/03/09 02:59:38;;;;;;;5.23;4.40;;;3.20;99.90;;;;;;5070557;28;21140;-80
2022/03/09 03:02:05;;;;;;;4.27;3.87;;;3.10;99.90;;;;;;4994688;28;20238;-80
2022/03/09 03:04:32;;;;;;;4.50;4.10;;;3.20;99.90;;;;;;4985564;28;20210;-80
2022/03/09 03:06:58;;;;;;;4.83;3.80;;;3.10;99.90;;;;;;4985476;28;20291;-80
2022/03/09 03:09:25;;;;;;;5.00;4.33;;;3.10;99.90;;;;;;4986677;28;20308;-79
2022/03/09 03:11:52;;;;;;;5.47;4.10;;;3.10;99.90;;;;;;4986940;28;20373;-80
2022/03/09 03:14:20;;;;;;;4.40;4.03;;;3.00;99.90;;;;;;4998652;28;20209;-80
2022/03/09 03:16:46;;;;;;;4.27;3.87;;;2.90;99.90;;;;;;4986065;28;20236;-82
2022/03/09 03:19:13;;;;;;;5.50;4.00;;;3.00;99.90;;;;;;5024797;28;20676;-82
2022/03/09 03:21:39;;;;;;;4.13;3.80;;;2.90;99.90;;;;;;4982984;28;20210;-83
2022/03/09 03:24:07;;;;;;;4.30;3.90;;;2.90;99.90;;;;;;5045382;28;20210;-83
2022/03/09 03:26:33;;;;;;;5.13;4.37;;;3.00;99.90;;;;;;5021036;28;20704;-83
2022/03/09 03:29:00;;;;;;;6.50;4.20;;;3.10;99.90;;;;;;4986554;28;20676;-84
2022/03/09 03:31:29;;;;;;;4.53;4.13;;;3.20;99.90;;;;;;4985874;28;20214;-85
2022/03/09 03:33:56;;;;;;;4.20;3.80;;;3.00;99.90;;;;;;4993433;28;20199;-86
2022/03/09 03:36:23;;;;;;;6.60;4.03;;;2.90;99.90;;;;;;4990195;28;20205;-84
2022/03/09 03:38:50;;;;;;;4.70;4.10;;;2.90;99.90;;;;;;4989569;28;20206;-83
2022/03/09 03:41:17;;;;;;;3.67;3.37;;;2.90;99.90;;;;;;4990204;28;20226;-86
2022/03/09 03:43:43;;;;;;;4.43;4.13;;;2.90;99.90;;;;;;5002179;28;20275;-86
2022/03/09 03:46:10;;;;;;;4.00;3.70;;;2.90;99.90;;;;;;4998333;28;20657;-86
2022/03/09 03:48:38;;;;;;;4.53;3.87;;;3.00;99.90;;;;;;5002022;28;20230;-86
2022/03/09 03:51:04;;;;;;;5.03;4.00;;;2.90;99.90;;;;;;4986196;28;20279;-86
2022/03/09 03:53:31;;;;;;;4.17;3.77;;;2.80;99.90;;;;;;5000780;28;20210;-82
2022/03/09 03:55:58;;;;;;;3.93;3.30;;;2.80;99.90;;;;;;5060609;28;20647;-83
2022/03/09 03:58:25;;;;;;;4.23;3.80;;;2.80;99.90;;;;;;4994540;28;20214;-86
2022/03/09 04:00:51;;;;;;;3.97;3.60;;;2.80;99.90;;;;;;4984151;28;20673;-87
2022/03/09 04:03:18;;;;;;;3.80;3.50;;;2.80;99.90;;;;;;5013180;28;20259;-87
2022/03/09 04:05:46;;;;;;;4.83;4.03;;;2.90;99.90;;;;;;5001223;28;20210;-87
2022/03/09 04:08:13;;;;;;;4.67;3.97;;;2.70;99.90;;;;;;4993284;28;20230;-85
2022/03/09 04:10:39;;;;;;;4.97;3.67;;;2.70;99.90;;;;;;5073506;28;20202;-84
2022/03/09 04:13:06;;;;;;;4.03;3.73;;;2.80;99.90;;;;;;5000700;28;20211;-83
2022/03/09 04:15:33;;;;;;;3.90;3.60;;;2.80;99.90;;;;;;4977565;28;20442;-84
2022/03/09 04:18:00;;;;;;;4.43;4.13;;;2.80;99.90;;;;;;4976968;28;20210;-84
2022/03/09 04:20:27;;;;;;;5.27;4.60;;;2.70;99.90;;;;;;5020969;28;20618;-84
2022/03/09 04:22:55;;;;;;;6.00;4.60;;;2.70;99.90;;;;;;4979090;28;20535;-84
2022/03/09 04:25:22;;;;;;;5.07;4.60;;;2.70;99.90;;;;;;4990726;28;20210;-85
2022/03/09 04:27:49;;;;;;;5.27;4.50;;;2.70;99.90;;;;;;4978470;28;20234;-85
2022/03/09 04:30:15;;;;;;;4.00;3.70;;;2.60;99.90;;;;;;4989511;28;20211;-85
2022/03/09 04:32:42;;;;;;;4.80;4.30;;;2.60;99.90;;;;;;4979119;28;20263;-86
2022/03/09 04:35:10;;;;;;;5.33;4.83;;;2.60;99.90;;;;;;4988201;28;20911;-86
2022/03/09 04:37:36;;;;;;;4.70;4.30;;;2.60;99.90;;;;;;4980635;28;20214;-85
2022/03/09 04:40:05;;;;;;;4.50;4.10;;;2.70;99.90;;;;;;4986035;28;20207;-84
2022/03/09 04:42:32;;;;;;;5.90;4.57;;;2.60;99.90;;;;;;4978798;28;20265;-84
2022/03/09 04:44:59;;;;;;;5.07;4.57;;;2.60;99.90;;;;;;4986751;28;20430;-84
2022/03/09 04:47:26;;;;;;;4.50;4.13;;;2.60;99.90;;;;;;4977912;28;20556;-85
2022/03/09 04:49:52;;;;;;;5.20;4.70;;;2.50;99.90;;;;;;5002396;28;20255;-85
2022/03/09 04:52:20;;;;;;;5.57;4.80;;;2.50;99.90;;;;;;4998278;28;20215;-85
2022/03/09 04:54:47;;;;;;;6.00;5.40;;;2.50;99.90;;;;;;4998461;28;20234;-85
2022/03/09 04:57:15;;;;;;;5.40;4.90;;;2.60;99.90;;;;;;5060669;28;20303;-82
2022/03/09 04:59:42;;;;;;;4.90;4.40;;;2.40;99.90;;;;;;4986563;28;20245;-83
2022/03/09 05:02:09;;;;;;;5.30;4.80;;;2.40;99.90;;;;;;4982711;28;20253;-83
2022/03/09 05:04:35;;;;;;;6.43;5.40;;;2.40;99.90;;;;;;4998667;28;20572;-83
2022/03/09 05:07:02;;;;;;;5.10;4.70;;;2.40;99.90;;;;;;4990327;28;20252;-82
2022/03/09 05:09:29;;;;;;;5.40;4.90;;;2.30;99.90;;;;;;5002651;28;21037;-83
2022/03/09 05:11:56;;;;;;;7.17;5.83;;;2.30;99.90;;;;;;5036249;28;20689;-84
2022/03/09 05:14:24;;;;;;;5.90;5.40;;;2.20;99.90;;;;;;4998280;28;20213;-83
2022/03/09 05:16:50;;;;;;;6.03;4.40;;;2.30;99.90;;;;;;4993252;28;20202;-83
2022/03/09 05:19:21;;;;;;;6.00;5.13;;;2.30;99.90;;;;;;5003161;28;20214;-85
2022/03/09 05:21:57;;;;;;;7.87;6.57;;;2.30;99.90;;;;;;5010963;28;20263;-84
2022/03/09 05:24:34;;;;;;;5.90;5.30;;;2.20;99.90;;;;;;5006877;28;20647;-84
2022/03/09 05:27:01;;;;;;;6.83;5.27;;;2.10;99.90;;;;;;5036669;28;20282;-85
2022/03/09 05:29:29;;;;;;;6.00;5.40;;;2.20;99.90;;;;;;5005901;28;20497;-84
2022/03/09 05:31:55;;;;;;;5.40;4.90;;;2.20;99.90;;;;;;4994602;28;20210;-84
2022/03/09 05:34:22;;;;;;;5.83;5.33;;;2.10;99.90;;;;;;5005373;28;20669;-83
2022/03/09 05:36:49;;;;;;;6.63;5.17;;;2.10;99.90;;;;;;5000721;28;20206;-84
2022/03/09 05:39:16;;;;;;;6.20;5.60;;;2.10;99.90;;;;;;4985923;28;20949;-84
2022/03/09 05:41:42;;;;;;;8.27;5.23;;;2.10;99.90;;;;;;5053604;28;20687;-84
2022/03/09 05:44:09;;;;;;;6.83;5.50;;;2.10;99.90;;;;;;5018338;28;20218;-84
2022/03/09 05:46:37;;;;;;;5.07;4.63;;;2.20;99.90;;;;;;5011680;28;20260;-84
2022/03/09 05:49:04;;;;;;;5.40;4.90;;;2.10;99.90;;;;;;4992623;28;20241;-84
2022/03/09 05:51:30;;;;;;;5.07;4.57;;;2.20;99.90;;;;;;5001464;28;20210;-85
2022/03/09 05:53:57;;;;;;;7.27;5.37;;;2.20;99.90;;;;;;4994196;28;20217;-83
2022/03/09 05:56:24;;;;;;;5.37;4.90;;;2.20;99.90;;;;;;5001598;28;20234;-84
2022/03/09 05:58:51;;;;;;;5.77;5.00;;;2.10;99.90;;;;;;4987558;28;20218;-84
2022/03/09 06:01:17;;;;;;;6.30;4.97;;;2.20;99.90;;;;;;5017048;28;20251;-84
2022/03/09 06:03:45;;;;;;;6.50;5.00;;;2.20;99.90;;;;;;4986555;28;20252;-85
2022/03/09 06:06:12;;;;;;;5.00;4.50;;;2.20;99.90;;;;;;4999625;28;20203;-84
2022/03/09 06:08:41;;;;;;;5.00;4.50;;;2.20;99.90;;;;;;4986792;28;20279;-84
2022/03/09 06:11:08;;;;;;;7.90;4.83;;;2.20;99.90;;;;;;5006506;28;20202;-84
2022/03/09 06:13:34;;;;;;;7.07;5.13;;;2.20;99.90;;;;;;4981001;28;20206;-84
2022/03/09 06:16:05;;;;;;;5.63;5.13;;;2.20;99.90;;;;;;5004114;28;20264;-84
2022/03/09 06:18:32;;;;;;;5.30;4.90;;;2.10;99.90;;;;;;4989213;28;20191;-82
2022/03/09 06:21:00;;;;;;;5.97;5.03;;;2.20;99.90;;;;;;5026124;28;20538;-84
2022/03/09 06:23:27;;;;;;;5.40;4.80;;;2.20;99.90;;;;;;5046502;28;20282;-84
2022/03/09 06:25:53;;;;;;;5.70;5.07;;;2.30;99.90;;;;;;5007250;28;20211;-84
2022/03/09 06:28:20;;;;;;;6.00;5.17;;;2.40;99.90;;;;;;4988949;28;20233;-84
2022/03/09 06:30:47;;;;;;;5.80;5.00;;;2.40;99.90;;;;;;5013760;28;20217;-84
2022/03/09 06:33:14;;;;;;;6.00;5.50;;;2.50;99.90;;;;;;4985372;28;20211;-85
2022/03/09 06:35:40;;;;;;;7.10;5.23;;;2.50;99.90;;;;;;4991328;28;20481;-83
2022/03/09 06:38:08;;;;;;;5.77;5.27;;;2.60;99.90;;;;;;4989971;28;20211;-84
2022/03/09 06:40:35;;;;;;;5.63;5.07;;;2.60;99.90;;;;;;4984278;28;20578;-83
2022/03/09 06:43:02;;;;;;;6.80;5.20;;;2.60;99.90;;;;;;4998323;28;20207;-85
2022/03/09 06:45:29;;;;;;;5.30;4.90;;;2.60;99.90;;;;;;5000179;28;20579;-85
2022/03/09 06:47:56;;;;;;;8.37;5.27;;;2.70;99.90;;;;;;5001793;28;20729;-84
2022/03/09 06:50:23;;;;;;;8.93;5.43;;;2.80;99.90;;;;;;4990461;28;20256;-85
2022/03/09 06:52:49;;;;;;;10.17;5.93;;;2.80;99.90;;;;;;5006015;28;20217;-85
2022/03/09 06:55:17;;;;;;;6.47;5.80;;;2.90;99.90;;;;;;4994116;28;20207;-85
2022/03/09 06:57:44;;;;;;;10.63;5.27;;;2.90;99.90;;;;;;5008171;28;20198;-85
2022/03/09 07:00:14;;;;;;;7.33;6.03;;;3.00;99.90;;;;;;4993817;28;20239;-84
2022/03/09 07:02:41;;;;;;;6.53;5.50;;;3.10;99.90;;;;;;5008224;28;20226;-84
2022/03/09 07:05:08;;;;;;;6.63;6.03;;;3.20;99.90;;;;;;4985971;28;20206;-85
2022/03/09 07:07:35;;;;;;;6.27;5.67;;;3.20;99.90;;;;;;4997037;28;20244;-85
2022/03/09 07:10:02;;;;;;;5.73;5.23;;;3.30;99.90;;;;;;4981768;28;20386;-84
2022/03/09 07:12:30;;;;;;;6.50;5.83;;;3.50;99.90;;;;;;5008157;28;20206;-84
2022/03/09 07:14:56;;;;;;;5.80;5.30;;;3.50;99.90;;;;;;5000574;28;20210;-84
2022/03/09 07:17:23;;;;;;;6.77;6.17;;;3.70;99.90;;;;;;5004155;28;20210;-84
2022/03/09 07:19:51;;;;;;;7.27;6.17;;;3.80;99.90;;;;;;4981940;28;20206;-84
2022/03/09 07:22:17;;;;;;;5.67;5.20;;;3.90;99.90;;;;;;5001824;28;20228;-84
2022/03/09 07:24:44;;;;;;;12.50;6.10;;;3.90;99.90;;;;;;4985603;28;20222;-86
2022/03/09 07:27:11;;;;;;;6.67;6.03;;;4.00;99.90;;;;;;5001210;28;20259;-84
2022/03/09 07:29:39;;;;;;;7.10;6.50;;;4.10;99.90;;;;;;4989816;28;20234;-84
2022/03/09 07:32:06;;;;;;;6.70;6.10;;;4.30;99.90;;;;;;4999211;28;20252;-84
2022/03/09 07:34:33;;;;;;;7.13;6.43;;;4.30;99.90;;;;;;4997831;28;20637;-84
2022/03/09 07:36:59;;;;;;;7.67;6.90;;;4.30;99.90;;;;;;4992014;28;20211;-84
2022/03/09 07:39:28;;;;;;;7.87;6.90;;;4.40;99.90;;;;;;4992195;28;20207;-84
2022/03/09 07:41:56;;;;;;;9.63;7.10;;;4.40;99.90;;;;;;5014337;28;20207;-84
2022/03/09 07:44:23;;;;;;;7.13;6.43;;;4.40;99.90;;;;;;5009764;28;20320;-85
2022/03/09 07:46:51;;;;;;;7.23;6.63;;;4.50;99.90;;;;;;4995831;28;20695;-85
2022/03/09 07:49:19;;;;;;;7.80;7.00;;;4.50;99.90;;;;;;4997824;28;20237;-85
2022/03/09 07:51:46;;;;;;;7.60;6.67;;;4.50;99.90;;;;;;4985818;28;20210;-85
2022/03/09 07:54:14;;;;;;;7.20;6.50;;;4.60;99.90;;;;;;5046849;28;20843;-87
2022/03/09 07:56:40;;;;;;;7.70;6.90;;;4.70;99.90;;;;;;5033818;28;20272;-86
2022/03/09 07:59:08;;;;;;;6.80;6.23;;;4.80;99.90;;;;;;5009062;28;20209;-85
2022/03/09 08:01:35;;;;;;;8.03;7.23;;;4.80;99.90;;;;;;4994347;28;20291;-85
2022/03/09 08:04:03;;;;;;;8.33;7.50;;;4.90;99.90;;;;;;5002390;28;20202;-85
2022/03/09 08:06:31;;;;;;;7.57;6.87;;;4.90;99.90;;;;;;4991793;28;20271;-85
2022/03/09 08:08:58;;;;;;;8.20;7.50;;;5.00;99.90;;;;;;5016073;28;20258;-84
2022/03/09 08:11:25;;;;;;;7.70;7.00;;;5.10;99.90;;;;;;4990421;28;20227;-84
2022/03/09 08:13:52;;;;;;;8.63;7.83;;;5.10;99.90;;;;;;5009997;28;20207;-83
2022/03/09 08:16:18;;;;;;;8.73;7.93;;;5.20;99.90;;;;;;4973780;28;20224;-84
2022/03/09 08:18:45;;;;;;;8.93;8.03;;;5.40;99.90;;;;;;4998113;28;20222;-85
2022/03/09 08:21:13;;;;;;;12.57;7.67;;;5.40;99.90;;;;;;4991538;28;20263;-82
2022/03/09 08:23:40;;;;;;;8.40;7.60;;;5.50;99.90;;;;;;5015680;28;20275;-83
2022/03/09 08:26:07;;;;;;;8.20;7.40;;;5.60;99.90;;;;;;4988404;28;20262;-84
2022/03/09 08:28:34;;;;;;;7.53;6.83;;;5.60;99.90;;;;;;5016863;28;20237;-83
2022/03/09 08:31:01;;;;;;;8.60;7.67;;;5.70;99.90;;;;;;4988796;28;20607;-83
2022/03/09 08:33:27;;;;;;;8.03;7.23;;;5.80;99.90;;;;;;5003927;28;20206;-84
2022/03/09 08:35:54;;;;;;;8.67;7.70;;;5.90;99.90;;;;;;4993128;28;20206;-84
2022/03/09 08:38:22;;;;;;;8.17;7.47;;;5.90;99.90;;;;;;4998091;28;20558;-83
2022/03/09 08:40:49;;;;;;;9.20;7.73;;;6.10;99.90;;;;;;5000248;28;20206;-84
2022/03/09 08:43:17;;;;;;;9.00;8.17;;;6.10;99.90;;;;;;4988648;28;20210;-83
2022/03/09 08:45:44;;;;;;;8.20;7.37;;;6.20;99.90;;;;;;5067807;28;20207;-83
2022/03/09 08:48:12;;;;;;;9.40;7.53;;;6.30;99.90;;;;;;5008161;28;20309;-83
2022/03/09 08:50:38;;;;;;;12.90;7.67;;;6.30;99.90;;;;;;5060324;28;20245;-83
2022/03/09 08:53:06;;;;;;;9.90;7.23;;;6.50;99.90;;;;;;5022133;28;20219;-84
2022/03/09 08:55:35;;;;;;;8.87;7.97;;;6.50;99.90;;;;;;5051686;28;20268;-84
2022/03/09 08:58:02;;;;;;;8.63;7.83;;;6.60;99.90;;;;;;5030682;28;20267;-84
2022/03/09 09:00:28;;;;;;;7.03;6.33;;;6.60;99.90;;;;;;5000946;28;20207;-83
2022/03/09 09:02:55;;;;;;;7.37;6.60;;;6.70;99.90;;;;;;4986114;28;20226;-84
2022/03/09 09:05:22;;;;;;;7.23;6.63;;;6.80;99.90;;;;;;5006943;28;20206;-84
2022/03/09 09:07:49;;;;;;;8.77;7.40;;;6.90;99.90;;;;;;4981208;28;20211;-85
2022/03/09 09:10:17;;;;;;;7.00;6.40;;;7.00;99.90;;;;;;5016781;28;20237;-83
2022/03/09 09:12:46;;;;;;;6.70;6.10;;;7.10;99.90;;;;;;4980020;28;20214;-84
2022/03/09 09:15:13;;;;;;;7.37;6.47;;;7.20;99.90;;;;;;5003571;28;20546;-84
2022/03/09 09:17:39;;;;;;;6.50;5.90;;;7.30;99.90;;;;;;4989443;28;20865;-84
2022/03/09 09:20:07;;;;;;;5.83;5.33;;;7.30;99.90;;;;;;5020730;28;20245;-83
2022/03/09 09:22:34;;;;;;;5.40;4.93;;;7.40;99.90;;;;;;4987030;28;20230;-83
2022/03/09 09:25:01;;;;;;;6.90;6.30;;;7.50;99.90;;;;;;5013875;28;20209;-84
2022/03/09 09:27:28;;;;;;;8.90;6.17;;;7.60;99.90;;;;;;4989227;28;20219;-84
2022/03/09 09:29:56;;;;;;;5.80;5.30;;;7.70;99.90;;;;;;5022252;28;20249;-83
2022/03/09 09:32:23;;;;;;;5.70;5.23;;;7.90;99.90;;;;;;4983506;28;20257;-83
2022/03/09 09:34:49;;;;;;;6.77;5.73;;;8.00;99.90;;;;;;5006743;28;20255;-83
2022/03/09 09:37:16;;;;;;;6.63;5.17;;;8.00;99.90;;;;;;4986785;28;20781;-83
2022/03/09 09:39:43;;;;;;;6.10;5.53;;;8.10;99.90;;;;;;5000817;28;20215;-84
2022/03/09 09:42:11;;;;;;;5.53;4.97;;;8.40;99.90;;;;;;5000230;28;20202;-84
2022/03/09 09:44:38;;;;;;;6.93;5.80;;;8.40;99.90;;;;;;5003011;28;20210;-85
2022/03/09 09:47:08;;;;;;;6.20;5.63;;;8.50;99.90;;;;;;4996599;28;20203;-84
2022/03/09 09:49:37;;;;;;;5.73;5.10;;;8.50;99.90;;;;;;4993783;28;20240;-86
2022/03/09 09:52:05;;;;;;;4.97;4.57;;;8.60;99.90;;;;;;5063672;28;20234;-86
2022/03/09 09:54:32;;;;;;;5.77;5.23;;;8.70;99.90;;;;;;5008916;28;20246;-86
2022/03/09 09:56:59;;;;;;;7.77;3.93;;;8.90;99.90;;;;;;4994983;28;20247;-84
2022/03/09 09:59:26;;;;;;;4.63;4.17;;;9.00;99.90;;;;;;4992673;28;20210;-85
2022/03/09 10:01:52;;;;;;;4.20;3.80;;;9.10;99.90;;;;;;4993518;28;20237;-84
2022/03/09 10:04:20;;;;;;;3.80;3.50;;;9.10;99.90;;;;;;4987761;28;20210;-84
2022/03/09 10:06:47;;;;;;;5.03;4.40;;;9.10;99.90;;;;;;5005263;28;20210;-86
2022/03/09 10:09:14;;;;;;;4.73;3.50;;;9.20;99.90;;;;;;4998836;28;20238;-85
2022/03/09 10:11:51;;;;;;;3.97;3.67;;;9.30;99.90;;;;;;5036971;28;20210;-86
2022/03/09 10:14:39;;;;;;;5.70;3.70;;;9.30;99.90;;;;;;4992671;28;20259;-86
2022/03/09 10:17:09;;;;;;;3.93;3.63;;;9.40;99.90;;;;;;5011271;28;20211;-86
2022/03/09 10:19:40;;;;;;;3.73;3.43;;;9.40;99.90;;;;;;5003004;28;20206;-86
2022/03/09 10:22:28;;;;;;;3.93;3.53;;;9.40;99.90;;;;;;5009621;28;20206;-85
2022/03/09 10:24:57;;;;;;;3.90;3.33;;;9.50;99.90;;;;;;5001750;28;20671;-85
2022/03/09 10:27:40;;;;;;;6.90;3.63;;;9.60;99.90;;;;;;5000132;28;21026;-87
2022/03/09 10:30:09;;;;;;;4.17;3.77;;;9.80;99.90;;;;;;4991024;28;20630;-87
2022/03/09 10:32:49;;;;;;;4.27;3.93;;;10.10;99.90;;;;;;4993451;28;20221;-85
2022/03/09 10:35:18;;;;;;;4.20;3.80;;;10.30;99.90;;;;;;4991290;28;20203;-85
2022/03/09 10:37:47;;;;;;;4.23;3.87;;;10.40;99.90;;;;;;4993192;28;20233;-86
2022/03/09 10:40:16;;;;;;;333.23;31.23;;;10.50;99.90;;;;;;5002222;28;20222;-86
2022/03/09 10:42:43;;;;;;;96.20;12.27;;;10.80;99.90;;;;;;5004633;28;20202;-86
2022/03/09 10:45:11;;;;;;;12.93;4.77;;;10.80;99.90;;;;;;4981571;28;20214;-85
2022/03/09 10:47:41;;;;;;;4.30;3.90;;;11.00;99.90;;;;;;4992198;28;20293;-86
2022/03/09 10:50:11;;;;;;;5.57;3.73;;;11.00;99.90;;;;;;5002886;28;20233;-86
2022/03/09 10:52:46;;;;;;;4.83;4.00;;;11.10;99.90;;;;;;5007320;28;20206;-85
2022/03/09 10:55:21;;;;;;;5.10;4.60;;;11.30;99.70;;;;;;4999326;28;20210;-85
2022/03/09 10:57:48;;;;;;;4.73;4.03;;;11.30;99.20;;;;;;4997391;28;20255;-86
2022/03/09 11:00:15;;;;;;;6.30;5.10;;;11.40;98.90;;;;;;4987065;28;20248;-85
2022/03/09 11:02:49;;;;;;;5.03;4.43;;;11.40;98.60;;;;;;5001178;28;20230;-86
2022/03/09 11:05:20;;;;;;;5.97;4.60;;;11.50;98.10;;;;;;5010469;28;20222;-86
2022/03/09 11:07:47;;;;;;;7.90;4.30;;;11.60;98.00;;;;;;5017864;28;20256;-86
2022/03/09 11:10:14;;;;;;;5.33;4.30;;;11.60;98.70;;;;;;4985028;28;20242;-86
2022/03/09 11:12:40;;;;;;;6.27;4.20;;;11.70;98.50;;;;;;5023522;28;20727;-85
2022/03/09 11:15:08;;;;;;;4.30;3.90;;;11.80;98.10;;;;;;4986486;28;20961;-87
2022/03/09 11:17:36;;;;;;;4.77;4.33;;;11.90;98.20;;;;;;5017947;28;20203;-85
2022/03/09 11:20:04;;;;;;;5.30;4.80;;;12.00;98.00;;;;;;4992817;28;20267;-83
2022/03/09 11:22:32;;;;;;;5.83;4.67;;;12.00;97.70;;;;;;5021849;28;20199;-84
2022/03/09 11:24:58;;;;;;;5.73;4.17;;;12.10;98.00;;;;;;5058968;28;20673;-85
2022/03/09 11:27:26;;;;;;;5.57;3.63;;;12.10;97.50;;;;;;5012908;28;20653;-85
2022/03/09 11:29:57;;;;;;;3.67;3.03;;;12.20;96.40;;;;;;5015673;28;20333;-85
2022/03/09 11:32:35;;;;;;;4.17;3.77;;;12.30;96.90;;;;;;5020801;28;21007;-84
2022/03/09 11:35:02;;;;;;;4.87;3.87;;;12.40;96.40;;;;;;4986810;28;20780;-84
2022/03/09 11:37:37;;;;;;;22.50;4.93;;;12.60;96.40;;;;;;5005500;28;20229;-84
2022/03/09 11:40:13;;;;;;;5.63;3.60;;;12.80;96.00;;;;;;4990658;28;20212;-83
2022/03/09 11:42:41;;;;;;;5.17;3.50;;;12.90;96.10;;;;;;5008949;28;20655;-85
2022/03/09 11:45:38;;;;;;;4.00;3.60;;;13.00;95.00;;;;;;4983508;28;20202;-83
2022/03/09 11:48:09;;;;;;;4.10;3.70;;;13.20;94.50;;;;;;5005389;28;20215;-83
2022/03/09 11:50:59;;;;;;;4.03;3.30;;;13.20;93.40;;;;;;4985531;28;20265;-84
2022/03/09 11:53:40;;;;;;;4.73;3.73;;;13.30;94.30;;;;;;5001790;28;20302;-82
2022/03/09 11:56:36;;;;;;;4.27;3.87;;;13.40;94.10;;;;;;4981274;28;20238;-82
2022/03/09 11:59:10;;;;;;;3.90;3.60;;;13.40;93.40;;;;;;4998149;28;20333;-83
2022/03/09 12:02:11;;;;;;;3.80;3.50;;;13.50;93.20;;;;;;4981994;28;20241;-83
2022/03/09 12:04:49;;;;;;;4.13;3.67;;;13.60;93.40;;;;;;4985553;28;20264;-83
2022/03/09 12:07:56;;;;;;;3.60;3.30;;;13.70;93.10;;;;;;4982657;28;20695;-83
2022/03/09 12:10:42;;;;;;;5.30;3.83;;;13.80;92.60;;;;;;4979809;28;20263;-84
2022/03/09 12:13:17;;;;;;;5.27;4.17;;;14.00;92.50;;;;;;4997785;28;20210;-83
2022/03/09 12:16:12;;;;;;;4.83;4.10;;;14.20;92.70;;;;;;4980228;28;20210;-84
2022/03/09 12:18:49;;;;;;;4.27;3.67;;;14.40;91.20;;;;;;4998997;28;20230;-82
2022/03/09 12:21:18;;;;;;;3.87;3.47;;;14.30;90.30;;;;;;4978047;28;20618;-82
2022/03/09 12:24:21;;;;;;;4.90;4.20;;;14.30;91.60;;;;;;4996518;28;20206;-83
2022/03/09 12:26:51;;;;;;;5.87;3.90;;;14.20;91.00;;;;;;4978100;28;20296;-83
2022/03/09 12:29:45;;;;;;;5.73;4.27;;;14.30;91.40;;;;;;4998103;28;20263;-83
2022/03/09 12:32:13;;;;;;;4.10;3.70;;;14.60;91.10;;;;;;4995958;28;20753;-83
2022/03/09 12:34:42;;;;;;;6.37;4.93;;;14.60;91.00;;;;;;4991413;28;20708;-83
2022/03/09 12:37:12;;;;;;;6.23;4.67;;;14.70;90.80;;;;;;4990438;28;20240;-82
2022/03/09 12:39:39;;;;;;;5.37;4.60;;;14.80;91.30;;;;;;4989958;28;20576;-83
2022/03/09 12:42:08;;;;;;;7.43;4.30;;;14.80;91.00;;;;;;4989041;28;20210;-82
2022/03/09 12:44:36;;;;;;;5.73;4.63;;;15.00;90.90;;;;;;5010069;28;20226;-83
2022/03/09 12:47:05;;;;;;;5.13;3.77;;;14.90;88.40;;;;;;4980370;28;20211;-83
2022/03/09 12:49:35;;;;;;;5.73;3.73;;;15.10;89.10;;;;;;5000781;28;20203;-83
2022/03/09 12:52:06;;;;;;;4.50;3.70;;;15.10;88.20;;;;;;4974082;28;20563;-83
2022/03/09 12:54:42;;;;;;;4.37;3.93;;;15.20;87.60;;;;;;5020235;28;20223;-82
2022/03/09 12:57:16;;;;;;;6.07;4.37;;;15.20;86.10;;;;;;4990206;28;20238;-83
2022/03/09 12:59:53;;;;;;;5.77;4.43;;;15.30;86.70;;;;;;5001905;28;20601;-84
2022/03/09 13:02:22;;;;;;;5.47;4.00;;;15.40;86.10;;;;;;4978075;28;20306;-83
2022/03/09 13:04:55;;;;;;;7.33;4.57;;;15.50;86.60;;;;;;4997837;28;20210;-83